Airfield :
LOGIN :

Register | Disclaimer

   EN    FR    IT 

 










Legend :    VFR   Marginal VFR   IFR   Intensive IFR   Very Intensive IFR
Visi :
Ceiling :
>= 8 km
>= 3000ft
5 to 8 km
1000 to 3000 ft
1500m to 5 km
500 to 1000 ft
800 to 1500m
200 to 500 ft
< 800m
< 200 ft
Symbols :   Thunderstorms  Fog  Heavy snow  Heavy precipitations  Wind > 20 kt
SIGMETs :     Misc.  Thunderstorms  Icing  Turbulence  Mountain Waves  Volcanic Ashes






- Airport Elevation : 327 ft
- IATA code : BHX


EGBB - Birmingham

CURRENT METAR :
  • 200020Z VRB02KT CAVOK 02/00 Q1026

EXPIRED METARs :
  • 192350Z 35003KT CAVOK 03/00 Q1026
  • 192320Z 03005KT 350V050 CAVOK 05/M01 Q1026
  • 192250Z 02007KT CAVOK 06/M00 Q1025
  • 192220Z 04006KT CAVOK 06/01 Q1025
  • 192150Z 04010KT 9999 FEW039 07/01 Q1024
  • 192120Z 05010KT 010V070 9999 BKN035 08/03 Q1024
  • 192050Z 02011KT 9999 SCT018 BKN030 BKN046 08/06 Q1024
  • 192020Z 32006KT 9999 FEW034 SCT043 08/06 Q1023
  • 191950Z 35009KT 7000 -RA SCT028 BKN038 08/06 Q1022

TAF TAF EGBB
Valid from the 20 at 00:00 until the 21 at 00:00 UTC


192256Z 2000/2024 04006KT 9999 FEW040
ATIS : +44 121 780 0910



MET'MAP, your aeronautical weather chart ! - Copyright ORBIFLY December 2007 - Disclaimer

ORBIFLY MET'MAP TEAM :

Programming & Development : Alexandra Zaïnal
Original concept : Baudouin d'Aumeries
Technical & hardware support : Manuel Goepfert
Assistance : Marc-Olivier Méhu




SOURCES & CREDITS :

   NOAA